sensor_id;sensor_type;location;lat;lon;timestamp;P1;durP1;ratioP1;P2;durP2;ratioP2
62535;SDS011;48587;47.514;18.918;2022-08-21T18:45:18;2.00;;;1.00;;
62535;SDS011;48587;47.514;18.918;2022-08-21T18:50:21;1.70;;;1.10;;
62535;SDS011;48587;47.514;18.918;2022-08-21T18:55:23;1.70;;;0.90;;
62535;SDS011;63050;47.514;18.920;2022-08-21T19:00:26;3.30;;;1.10;;
62535;SDS011;63050;47.514;18.920;2022-08-21T19:05:30;3.00;;;0.90;;
62535;SDS011;63050;47.514;18.920;2022-08-21T19:10:31;1.50;;;0.70;;
62535;SDS011;63050;47.514;18.920;2022-08-21T19:15:33;1.40;;;0.80;;
62535;SDS011;63050;47.514;18.920;2022-08-21T19:20:36;1.90;;;0.90;;
62535;SDS011;63050;47.514;18.920;2022-08-21T19:25:41;1.50;;;0.80;;
62535;SDS011;63050;47.514;18.920;2022-08-21T19:30:47;1.10;;;0.80;;
62535;SDS011;63050;47.514;18.920;2022-08-21T19:35:53;1.10;;;0.90;;
62535;SDS011;63050;47.514;18.920;2022-08-21T19:40:54;1.20;;;0.70;;
62535;SDS011;63050;47.514;18.920;2022-08-21T19:45:55;0.90;;;0.70;;
62535;SDS011;63050;47.514;18.920;2022-08-21T19:50:57;1.80;;;0.90;;
62535;SDS011;63050;47.514;18.920;2022-08-21T19:55:58;1.20;;;0.80;;
62535;SDS011;63050;47.514;18.920;2022-08-21T20:00:59;1.30;;;0.80;;
62535;SDS011;63050;47.514;18.920;2022-08-21T20:06:01;2.00;;;1.10;;
62535;SDS011;63050;47.514;18.920;2022-08-21T20:11:02;2.50;;;1.40;;
62535;SDS011;63050;47.514;18.920;2022-08-21T20:16:05;1.10;;;0.80;;
62535;SDS011;63050;47.514;18.920;2022-08-21T20:21:08;1.00;;;0.80;;
62535;SDS011;63050;47.514;18.920;2022-08-21T20:26:12;0.90;;;0.70;;
62535;SDS011;63050;47.514;18.920;2022-08-21T20:31:13;1.90;;;0.70;;
62535;SDS011;63050;47.514;18.920;2022-08-21T20:36:16;1.30;;;0.80;;
62535;SDS011;63050;47.514;18.920;2022-08-21T20:41:19;1.40;;;1.00;;
62535;SDS011;63050;47.514;18.920;2022-08-21T20:46:21;2.90;;;0.80;;
62535;SDS011;63050;47.514;18.920;2022-08-21T20:51:29;1.60;;;1.00;;
62535;SDS011;63050;47.514;18.920;2022-08-21T21:01:56;2.10;;;1.20;;
62535;SDS011;63050;47.514;18.920;2022-08-21T21:07:15;5.50;;;1.10;;
62535;SDS011;63050;47.514;18.920;2022-08-21T21:12:24;1.60;;;1.10;;
62535;SDS011;63050;47.514;18.920;2022-08-21T21:17:30;2.10;;;1.30;;
62535;SDS011;63050;47.514;18.920;2022-08-21T21:22:36;1.80;;;1.50;;
62535;SDS011;63050;47.514;18.920;2022-08-21T21:32:55;3.30;;;1.40;;
62535;SDS011;63050;47.514;18.920;2022-08-21T21:54:21;3.90;;;2.50;;
62535;SDS011;63050;47.514;18.920;2022-08-21T21:59:40;1.90;;;1.20;;
62535;SDS011;63050;47.514;18.920;2022-08-21T22:09:53;2.20;;;1.50;;
62535;SDS011;63050;47.514;18.920;2022-08-21T22:14:58;5.10;;;1.70;;
62535;SDS011;63050;47.514;18.920;2022-08-21T22:20:02;2.30;;;1.40;;
62535;SDS011;63050;47.514;18.920;2022-08-21T22:25:12;3.90;;;1.80;;
62535;SDS011;63050;47.514;18.920;2022-08-21T22:30:16;3.60;;;1.60;;
62535;SDS011;63050;47.514;18.920;2022-08-21T22:35:37;2.50;;;1.40;;
62535;SDS011;63050;47.514;18.920;2022-08-21T22:40:38;3.20;;;1.40;;
62535;SDS011;63050;47.514;18.920;2022-08-21T22:50:54;4.30;;;1.90;;
62535;SDS011;63050;47.514;18.920;2022-08-21T22:56:06;1.80;;;1.40;;
62535;SDS011;63050;47.514;18.920;2022-08-21T23:01:17;2.60;;;1.50;;
62535;SDS011;63050;47.514;18.920;2022-08-21T23:06:40;2.70;;;1.60;;
62535;SDS011;63050;47.514;18.920;2022-08-21T23:11:43;2.50;;;1.70;;
62535;SDS011;63050;47.514;18.920;2022-08-21T23:22:23;4.00;;;2.00;;
62535;SDS011;63050;47.514;18.920;2022-08-21T23:33:20;5.20;;;1.60;;
62535;SDS011;63050;47.514;18.920;2022-08-21T23:38:44;3.70;;;1.60;;
